sensor_id;sensor_type;location;lat;lon;timestamp;temperature;humidity
55121;DHT22;41019;48.512;9.036;2023-03-05T00:00:47;3.60;91.80
55121;DHT22;41019;48.512;9.036;2023-03-05T00:03:14;3.60;91.90
55121;DHT22;41019;48.512;9.036;2023-03-05T00:05:39;3.60;91.70
55121;DHT22;41019;48.512;9.036;2023-03-05T00:08:05;3.60;91.60
55121;DHT22;41019;48.512;9.036;2023-03-05T00:10:31;3.60;91.20
55121;DHT22;41019;48.512;9.036;2023-03-05T00:12:57;3.60;91.10
55121;DHT22;41019;48.512;9.036;2023-03-05T00:15:24;3.60;91.10
55121;DHT22;41019;48.512;9.036;2023-03-05T00:17:49;3.60;91.30
55121;DHT22;41019;48.512;9.036;2023-03-05T00:20:16;3.60;91.60
55121;DHT22;41019;48.512;9.036;2023-03-05T00:22:42;3.60;91.90
55121;DHT22;41019;48.512;9.036;2023-03-05T00:25:08;3.60;92.20
55121;DHT22;41019;48.512;9.036;2023-03-05T00:27:34;3.60;92.30
55121;DHT22;41019;48.512;9.036;2023-03-05T00:30:00;3.60;92.40
55121;DHT22;41019;48.512;9.036;2023-03-05T00:32:26;3.50;92.40
55121;DHT22;41019;48.512;9.036;2023-03-05T00:34:52;3.60;92.40
55121;DHT22;41019;48.512;9.036;2023-03-05T00:37:18;3.50;92.40
55121;DHT22;41019;48.512;9.036;2023-03-05T00:39:45;3.50;92.40
55121;DHT22;41019;48.512;9.036;2023-03-05T00:42:10;3.50;92.60
55121;DHT22;41019;48.512;9.036;2023-03-05T00:44:36;3.50;92.60
55121;DHT22;41019;48.512;9.036;2023-03-05T00:47:03;3.50;92.60
55121;DHT22;41019;48.512;9.036;2023-03-05T00:49:29;3.50;92.20
55121;DHT22;41019;48.512;9.036;2023-03-05T00:51:55;3.50;92.20
55121;DHT22;41019;48.512;9.036;2023-03-05T00:54:21;3.50;91.90
55121;DHT22;41019;48.512;9.036;2023-03-05T00:56:47;3.50;91.70
55121;DHT22;41019;48.512;9.036;2023-03-05T00:59:14;3.50;91.40
55121;DHT22;41019;48.512;9.036;2023-03-05T01:01:40;3.50;91.30
55121;DHT22;41019;48.512;9.036;2023-03-05T01:04:06;3.50;91.50
55121;DHT22;41019;48.512;9.036;2023-03-05T01:06:33;3.50;91.40
55121;DHT22;41019;48.512;9.036;2023-03-05T01:08:58;3.50;91.60
55121;DHT22;41019;48.512;9.036;2023-03-05T01:11:24;3.50;91.50
55121;DHT22;41019;48.512;9.036;2023-03-05T01:13:51;3.50;91.50
55121;DHT22;41019;48.512;9.036;2023-03-05T01:16:16;3.50;91.70
55121;DHT22;41019;48.512;9.036;2023-03-05T01:18:43;3.50;91.70
55121;DHT22;41019;48.512;9.036;2023-03-05T01:21:10;3.50;91.60
55121;DHT22;41019;48.512;9.036;2023-03-05T01:23:35;3.50;91.50
55121;DHT22;41019;48.512;9.036;2023-03-05T01:26:03;3.50;91.50
55121;DHT22;41019;48.512;9.036;2023-03-05T01:28:29;3.60;91.60
55121;DHT22;41019;48.512;9.036;2023-03-05T01:30:55;3.60;91.60
55121;DHT22;41019;48.512;9.036;2023-03-05T01:33:21;3.60;91.40
55121;DHT22;41019;48.512;9.036;2023-03-05T01:35:48;3.60;91.50
55121;DHT22;41019;48.512;9.036;2023-03-05T01:38:14;3.60;91.60
55121;DHT22;41019;48.512;9.036;2023-03-05T01:40:41;3.60;91.50
55121;DHT22;41019;48.512;9.036;2023-03-05T01:45:38;3.60;92.00
55121;DHT22;41019;48.512;9.036;2023-03-05T01:48:04;3.60;92.10
55121;DHT22;41019;48.512;9.036;2023-03-05T01:50:32;3.60;91.90
55121;DHT22;41019;48.512;9.036;2023-03-05T01:53:03;3.60;92.00
55121;DHT22;41019;48.512;9.036;2023-03-05T01:55:33;3.60;92.00
55121;DHT22;41019;48.512;9.036;2023-03-05T01:58:13;3.60;92.10
55121;DHT22;41019;48.512;9.036;2023-03-05T02:00:44;3.50;92.30
55121;DHT22;41019;48.512;9.036;2023-03-05T02:03:12;3.50;92.30
55121;DHT22;41019;48.512;9.036;2023-03-05T02:05:40;3.50;92.60
55121;DHT22;41019;48.512;9.036;2023-03-05T02:08:10;3.50;92.50
55121;DHT22;41019;48.512;9.036;2023-03-05T02:10:48;3.50;92.70
55121;DHT22;41019;48.512;9.036;2023-03-05T02:13:18;3.50;92.80
55121;DHT22;41019;48.512;9.036;2023-03-05T02:15:48;3.50;92.80
55121;DHT22;41019;48.512;9.036;2023-03-05T02:18:16;3.50;92.80
55121;DHT22;41019;48.512;9.036;2023-03-05T02:20:47;3.50;92.70
55121;DHT22;41019;48.512;9.036;2023-03-05T02:23:14;3.50;92.70
55121;DHT22;41019;48.512;9.036;2023-03-05T02:25:40;3.50;92.70
55121;DHT22;41019;48.512;9.036;2023-03-05T02:30:41;3.60;92.70
55121;DHT22;41019;48.512;9.036;2023-03-05T02:33:07;3.60;92.70
55121;DHT22;41019;48.512;9.036;2023-03-05T02:35:34;3.60;92.80
55121;DHT22;41019;48.512;9.036;2023-03-05T02:38:01;3.50;92.70
55121;DHT22;41019;48.512;9.036;2023-03-05T02:40:27;3.60;92.60
55121;DHT22;41019;48.512;9.036;2023-03-05T02:42:53;3.50;92.80
55121;DHT22;41019;48.512;9.036;2023-03-05T02:45:20;3.50;92.80
55121;DHT22;41019;48.512;9.036;2023-03-05T02:47:46;3.50;92.80
55121;DHT22;41019;48.512;9.036;2023-03-05T02:50:13;3.50;92.90
55121;DHT22;41019;48.512;9.036;2023-03-05T02:52:39;3.50;92.90
55121;DHT22;41019;48.512;9.036;2023-03-05T02:55:10;3.60;93.00
55121;DHT22;41019;48.512;9.036;2023-03-05T02:57:38;3.60;92.70
55121;DHT22;41019;48.512;9.036;2023-03-05T03:00:05;3.60;92.70
55121;DHT22;41019;48.512;9.036;2023-03-05T03:02:31;3.60;92.70
55121;DHT22;41019;48.512;9.036;2023-03-05T03:04:57;3.60;92.60
55121;DHT22;41019;48.512;9.036;2023-03-05T03:07:23;3.60;92.60
55121;DHT22;41019;48.512;9.036;2023-03-05T03:09:49;3.60;92.20
55121;DHT22;41019;48.512;9.036;2023-03-05T03:12:15;3.60;92.30
55121;DHT22;41019;48.512;9.036;2023-03-05T03:14:42;3.60;92.40
55121;DHT22;41019;48.512;9.036;2023-03-05T03:17:13;3.50;92.40
55121;DHT22;41019;48.512;9.036;2023-03-05T03:19:41;3.60;92.40
55121;DHT22;41019;48.512;9.036;2023-03-05T03:22:09;3.60;92.20
55121;DHT22;41019;48.512;9.036;2023-03-05T03:24:36;3.60;92.20
55121;DHT22;41019;48.512;9.036;2023-03-05T03:27:03;3.60;92.10
55121;DHT22;41019;48.512;9.036;2023-03-05T03:29:29;3.60;92.20
55121;DHT22;41019;48.512;9.036;2023-03-05T03:31:56;3.60;92.30
55121;DHT22;41019;48.512;9.036;2023-03-05T03:34:22;3.60;92.30
55121;DHT22;41019;48.512;9.036;2023-03-05T03:36:50;3.60;92.30
55121;DHT22;41019;48.512;9.036;2023-03-05T03:39:18;3.60;92.20
55121;DHT22;41019;48.512;9.036;2023-03-05T03:41:47;3.60;92.10
55121;DHT22;41019;48.512;9.036;2023-03-05T03:44:16;3.60;92.20
55121;DHT22;41019;48.512;9.036;2023-03-05T03:46:47;3.60;92.20
55121;DHT22;41019;48.512;9.036;2023-03-05T03:49:22;3.60;92.30
55121;DHT22;41019;48.512;9.036;2023-03-05T03:51:50;3.60;92.20
55121;DHT22;41019;48.512;9.036;2023-03-05T03:54:18;3.60;92.30
55121;DHT22;41019;48.512;9.036;2023-03-05T03:56:44;3.60;92.70
55121;DHT22;41019;48.512;9.036;2023-03-05T03:59:10;3.60;93.00
55121;DHT22;41019;48.512;9.036;2023-03-05T04:01:37;3.60;93.20
55121;DHT22;41019;48.512;9.036;2023-03-05T04:04:04;3.60;93.20
55121;DHT22;41019;48.512;9.036;2023-03-05T04:06:31;3.60;93.30
55121;DHT22;41019;48.512;9.036;2023-03-05T04:08:57;3.60;93.20
55121;DHT22;41019;48.512;9.036;2023-03-05T04:11:24;3.60;93.30
55121;DHT22;41019;48.512;9.036;2023-03-05T04:13:51;3.60;93.50
55121;DHT22;41019;48.512;9.036;2023-03-05T04:16:17;3.60;93.70
55121;DHT22;41019;48.512;9.036;2023-03-05T04:18:44;3.60;93.60
55121;DHT22;41019;48.512;9.036;2023-03-05T04:21:11;3.60;93.50
55121;DHT22;41019;48.512;9.036;2023-03-05T04:23:38;3.60;93.10
55121;DHT22;41019;48.512;9.036;2023-03-05T04:26:05;3.60;93.10
55121;DHT22;41019;48.512;9.036;2023-03-05T04:28:31;3.60;93.10
55121;DHT22;41019;48.512;9.036;2023-03-05T04:30:57;3.60;93.30
55121;DHT22;41019;48.512;9.036;2023-03-05T04:33:23;3.60;93.10
55121;DHT22;41019;48.512;9.036;2023-03-05T04:35:50;3.60;93.10
55121;DHT22;41019;48.512;9.036;2023-03-05T04:38:16;3.60;93.10
55121;DHT22;41019;48.512;9.036;2023-03-05T04:40:44;3.60;92.90
55121;DHT22;41019;48.512;9.036;2023-03-05T04:43:10;3.60;93.00
55121;DHT22;41019;48.512;9.036;2023-03-05T04:45:39;3.60;93.00
55121;DHT22;41019;48.512;9.036;2023-03-05T04:48:05;3.60;93.10
55121;DHT22;41019;48.512;9.036;2023-03-05T04:50:31;3.60;92.90
55121;DHT22;41019;48.512;9.036;2023-03-05T04:52:57;3.60;93.20
55121;DHT22;41019;48.512;9.036;2023-03-05T04:55:26;3.60;93.20
55121;DHT22;41019;48.512;9.036;2023-03-05T04:57:52;3.60;93.30
55121;DHT22;41019;48.512;9.036;2023-03-05T05:00:18;3.60;93.20
55121;DHT22;41019;48.512;9.036;2023-03-05T05:02:46;3.60;93.10
55121;DHT22;41019;48.512;9.036;2023-03-05T05:05:16;3.60;93.20
55121;DHT22;41019;48.512;9.036;2023-03-05T05:07:42;3.60;93.20
55121;DHT22;41019;48.512;9.036;2023-03-05T05:10:09;3.60;93.20
55121;DHT22;41019;48.512;9.036;2023-03-05T05:12:36;3.60;93.30
55121;DHT22;41019;48.512;9.036;2023-03-05T05:15:04;3.60;93.40
55121;DHT22;41019;48.512;9.036;2023-03-05T05:17:31;3.60;93.70
55121;DHT22;41019;48.512;9.036;2023-03-05T05:19:59;3.60;93.60
55121;DHT22;41019;48.512;9.036;2023-03-05T05:22:27;3.60;93.60
55121;DHT22;41019;48.512;9.036;2023-03-05T05:24:54;3.60;93.60
55121;DHT22;41019;48.512;9.036;2023-03-05T05:27:20;3.60;93.60
55121;DHT22;41019;48.512;9.036;2023-03-05T05:29:46;3.60;93.60
55121;DHT22;41019;48.512;9.036;2023-03-05T05:32:24;3.60;93.70
55121;DHT22;41019;48.512;9.036;2023-03-05T05:34:57;3.60;93.70
55121;DHT22;41019;48.512;9.036;2023-03-05T05:37:24;3.60;93.70
55121;DHT22;41019;48.512;9.036;2023-03-05T05:39:51;3.60;93.40
55121;DHT22;41019;48.512;9.036;2023-03-05T05:42:20;3.60;93.60
55121;DHT22;41019;48.512;9.036;2023-03-05T05:44:46;3.60;93.40
55121;DHT22;41019;48.512;9.036;2023-03-05T05:47:14;3.60;93.60
55121;DHT22;41019;48.512;9.036;2023-03-05T05:49:40;3.60;93.60
55121;DHT22;41019;48.512;9.036;2023-03-05T05:52:06;3.60;93.70
55121;DHT22;41019;48.512;9.036;2023-03-05T05:54:32;3.60;93.70
55121;DHT22;41019;48.512;9.036;2023-03-05T05:56:58;3.60;93.70
55121;DHT22;41019;48.512;9.036;2023-03-05T05:59:25;3.60;93.50
55121;DHT22;41019;48.512;9.036;2023-03-05T06:01:51;3.60;93.50
55121;DHT22;41019;48.512;9.036;2023-03-05T06:04:17;3.60;93.40
55121;DHT22;41019;48.512;9.036;2023-03-05T06:06:43;3.60;93.40
55121;DHT22;41019;48.512;9.036;2023-03-05T06:09:09;3.60;93.40
55121;DHT22;41019;48.512;9.036;2023-03-05T06:11:36;3.60;93.40
55121;DHT22;41019;48.512;9.036;2023-03-05T06:14:02;3.60;93.40
55121;DHT22;41019;48.512;9.036;2023-03-05T06:16:28;3.60;93.30
55121;DHT22;41019;48.512;9.036;2023-03-05T06:18:54;3.60;93.50
55121;DHT22;41019;48.512;9.036;2023-03-05T06:21:21;3.60;93.70
55121;DHT22;41019;48.512;9.036;2023-03-05T06:23:49;3.60;93.80
55121;DHT22;41019;48.512;9.036;2023-03-05T06:26:18;3.60;93.70
55121;DHT22;41019;48.512;9.036;2023-03-05T06:28:45;3.60;93.80
55121;DHT22;41019;48.512;9.036;2023-03-05T06:31:20;3.60;93.70
55121;DHT22;41019;48.512;9.036;2023-03-05T06:33:47;3.60;93.90
55121;DHT22;41019;48.512;9.036;2023-03-05T06:36:16;3.60;93.80
55121;DHT22;41019;48.512;9.036;2023-03-05T06:38:43;3.60;93.80
55121;DHT22;41019;48.512;9.036;2023-03-05T06:41:11;3.60;93.90
55121;DHT22;41019;48.512;9.036;2023-03-05T06:43:40;3.60;94.00
55121;DHT22;41019;48.512;9.036;2023-03-05T06:46:12;3.60;94.30
55121;DHT22;41019;48.512;9.036;2023-03-05T06:48:38;3.70;94.30
55121;DHT22;41019;48.512;9.036;2023-03-05T06:51:04;3.60;94.20
55121;DHT22;41019;48.512;9.036;2023-03-05T06:53:30;3.70;94.40
55121;DHT22;41019;48.512;9.036;2023-03-05T06:55:59;3.70;94.50
55121;DHT22;41019;48.512;9.036;2023-03-05T06:58:25;3.70;94.30
55121;DHT22;41019;48.512;9.036;2023-03-05T07:00:51;3.70;94.30
55121;DHT22;41019;48.512;9.036;2023-03-05T07:03:17;3.70;94.30
55121;DHT22;41019;48.512;9.036;2023-03-05T07:05:43;3.80;94.20
55121;DHT22;41019;48.512;9.036;2023-03-05T07:08:09;3.80;94.20
55121;DHT22;41019;48.512;9.036;2023-03-05T07:10:40;3.80;94.20
55121;DHT22;41019;48.512;9.036;2023-03-05T07:13:07;3.90;94.00
55121;DHT22;41019;48.512;9.036;2023-03-05T07:15:36;3.90;93.60
55121;DHT22;41019;48.512;9.036;2023-03-05T07:18:02;3.90;93.50
55121;DHT22;41019;48.512;9.036;2023-03-05T07:20:28;3.90;93.50
55121;DHT22;41019;48.512;9.036;2023-03-05T07:22:54;3.90;93.60
55121;DHT22;41019;48.512;9.036;2023-03-05T07:25:20;3.90;93.50
55121;DHT22;41019;48.512;9.036;2023-03-05T07:27:47;3.90;93.30
55121;DHT22;41019;48.512;9.036;2023-03-05T07:30:14;4.00;93.40
55121;DHT22;41019;48.512;9.036;2023-03-05T07:32:40;4.10;93.30
55121;DHT22;41019;48.512;9.036;2023-03-05T07:35:06;4.10;93.30
55121;DHT22;41019;48.512;9.036;2023-03-05T07:37:32;4.00;93.10
55121;DHT22;41019;48.512;9.036;2023-03-05T07:39:58;4.00;93.10
55121;DHT22;41019;48.512;9.036;2023-03-05T07:42:24;4.10;93.40
55121;DHT22;41019;48.512;9.036;2023-03-05T07:45:02;4.10;93.50
55121;DHT22;41019;48.512;9.036;2023-03-05T07:47:28;4.10;93.30
55121;DHT22;41019;48.512;9.036;2023-03-05T07:49:55;4.10;93.20
55121;DHT22;41019;48.512;9.036;2023-03-05T07:52:21;4.20;93.00
55121;DHT22;41019;48.512;9.036;2023-03-05T07:54:47;4.20;93.20
55121;DHT22;41019;48.512;9.036;2023-03-05T07:57:13;4.20;93.20
55121;DHT22;41019;48.512;9.036;2023-03-05T07:59:38;4.30;92.70
55121;DHT22;41019;48.512;9.036;2023-03-05T08:02:05;4.30;92.50
55121;DHT22;41019;48.512;9.036;2023-03-05T08:04:31;4.30;92.40
55121;DHT22;41019;48.512;9.036;2023-03-05T08:06:58;4.30;92.20
55121;DHT22;41019;48.512;9.036;2023-03-05T08:09:25;4.40;92.30
55121;DHT22;41019;48.512;9.036;2023-03-05T08:11:52;4.40;92.20
55121;DHT22;41019;48.512;9.036;2023-03-05T08:14:18;4.40;92.00
55121;DHT22;41019;48.512;9.036;2023-03-05T08:16:44;4.50;92.00
55121;DHT22;41019;48.512;9.036;2023-03-05T08:19:11;4.50;91.90
55121;DHT22;41019;48.512;9.036;2023-03-05T08:21:37;4.60;92.00
55121;DHT22;41019;48.512;9.036;2023-03-05T08:24:06;4.60;91.90
55121;DHT22;41019;48.512;9.036;2023-03-05T08:26:35;4.60;91.70
55121;DHT22;41019;48.512;9.036;2023-03-05T08:29:03;4.70;91.20
55121;DHT22;41019;48.512;9.036;2023-03-05T08:31:31;4.70;91.40
55121;DHT22;41019;48.512;9.036;2023-03-05T08:33:59;4.80;91.30
55121;DHT22;41019;48.512;9.036;2023-03-05T08:36:25;4.80;91.40
55121;DHT22;41019;48.512;9.036;2023-03-05T08:38:52;4.90;90.90
55121;DHT22;41019;48.512;9.036;2023-03-05T08:41:18;4.90;90.40
55121;DHT22;41019;48.512;9.036;2023-03-05T08:43:44;5.00;90.40
55121;DHT22;41019;48.512;9.036;2023-03-05T08:46:14;5.00;90.60
55121;DHT22;41019;48.512;9.036;2023-03-05T08:48:41;5.00;90.50
55121;DHT22;41019;48.512;9.036;2023-03-05T08:51:15;5.10;90.60
55121;DHT22;41019;48.512;9.036;2023-03-05T08:53:43;5.20;90.30
55121;DHT22;41019;48.512;9.036;2023-03-05T08:56:10;5.20;90.20
55121;DHT22;41019;48.512;9.036;2023-03-05T08:58:36;5.30;90.40
55121;DHT22;41019;48.512;9.036;2023-03-05T09:01:03;5.30;89.80
55121;DHT22;41019;48.512;9.036;2023-03-05T09:03:29;5.30;90.10
55121;DHT22;41019;48.512;9.036;2023-03-05T09:06:02;5.40;89.50
55121;DHT22;41019;48.512;9.036;2023-03-05T09:08:29;5.50;89.20
55121;DHT22;41019;48.512;9.036;2023-03-05T09:10:56;5.50;88.50
55121;DHT22;41019;48.512;9.036;2023-03-05T09:13:22;5.60;87.90
55121;DHT22;41019;48.512;9.036;2023-03-05T09:16:03;5.70;87.30
55121;DHT22;41019;48.512;9.036;2023-03-05T09:18:30;5.70;87.90
55121;DHT22;41019;48.512;9.036;2023-03-05T09:20:56;5.80;86.70
55121;DHT22;41019;48.512;9.036;2023-03-05T09:23:22;5.80;87.20
55121;DHT22;41019;48.512;9.036;2023-03-05T09:25:49;5.70;87.00
55121;DHT22;41019;48.512;9.036;2023-03-05T09:28:15;5.80;87.30
55121;DHT22;41019;48.512;9.036;2023-03-05T09:30:41;5.90;88.50
55121;DHT22;41019;48.512;9.036;2023-03-05T09:33:07;5.90;87.70
55121;DHT22;41019;48.512;9.036;2023-03-05T09:35:35;6.00;87.40
55121;DHT22;41019;48.512;9.036;2023-03-05T09:38:01;6.10;87.50
55121;DHT22;41019;48.512;9.036;2023-03-05T09:40:42;6.20;86.30
55121;DHT22;41019;48.512;9.036;2023-03-05T09:45:39;6.30;86.70
55121;DHT22;41019;48.512;9.036;2023-03-05T09:48:50;6.40;86.00
55121;DHT22;41019;48.512;9.036;2023-03-05T09:51:15;6.50;85.20
55121;DHT22;41019;48.512;9.036;2023-03-05T09:53:57;6.60;85.00
55121;DHT22;41019;48.512;9.036;2023-03-05T09:56:39;6.70;84.10
55121;DHT22;41019;48.512;9.036;2023-03-05T10:01:41;6.80;84.00
55121;DHT22;41019;48.512;9.036;2023-03-05T10:07:04;6.80;83.70
55121;DHT22;41019;48.512;9.036;2023-03-05T10:09:44;6.90;83.10
55121;DHT22;41019;48.512;9.036;2023-03-05T10:14:59;7.00;83.90
55121;DHT22;41019;48.512;9.036;2023-03-05T10:20:07;7.10;82.00
55121;DHT22;41019;48.512;9.036;2023-03-05T10:28:47;7.40;81.30
55121;DHT22;41019;48.512;9.036;2023-03-05T10:39:41;7.60;79.80
55121;DHT22;41019;48.512;9.036;2023-03-05T10:45:16;7.70;80.10
55121;DHT22;41019;48.512;9.036;2023-03-05T10:50:47;7.80;79.50
55121;DHT22;41019;48.512;9.036;2023-03-05T10:55:43;7.90;79.40
55121;DHT22;41019;48.512;9.036;2023-03-05T10:58:14;8.00;79.40
55121;DHT22;41019;48.512;9.036;2023-03-05T11:01:01;8.20;77.60
55121;DHT22;41019;48.512;9.036;2023-03-05T11:03:57;8.20;77.60
55121;DHT22;41019;48.512;9.036;2023-03-05T11:09:29;8.30;75.50
55121;DHT22;41019;48.512;9.036;2023-03-05T11:14:36;8.30;74.50
55121;DHT22;41019;48.512;9.036;2023-03-05T11:19:48;8.40;74.00
55121;DHT22;41019;48.512;9.036;2023-03-05T11:22:20;8.30;73.30
55121;DHT22;41019;48.512;9.036;2023-03-05T11:25:13;8.30;73.80
55121;DHT22;41019;48.512;9.036;2023-03-05T11:27:50;8.30;74.00
55121;DHT22;41019;48.512;9.036;2023-03-05T11:30:27;8.40;72.00
55121;DHT22;41019;48.512;9.036;2023-03-05T11:33:13;8.30;72.60
55121;DHT22;41019;48.512;9.036;2023-03-05T11:35:42;8.40;72.50
55121;DHT22;41019;48.512;9.036;2023-03-05T11:38:23;8.40;73.30
55121;DHT22;41019;48.512;9.036;2023-03-05T11:40:52;8.30;70.30
55121;DHT22;41019;48.512;9.036;2023-03-05T11:43:25;8.20;71.20
55121;DHT22;41019;48.512;9.036;2023-03-05T11:46:03;8.20;70.20
55121;DHT22;41019;48.512;9.036;2023-03-05T11:48:39;8.20;71.10
55121;DHT22;41019;48.512;9.036;2023-03-05T11:51:17;8.10;70.20
55121;DHT22;41019;48.512;9.036;2023-03-05T11:53:50;8.20;70.10
55121;DHT22;41019;48.512;9.036;2023-03-05T11:56:27;8.20;72.00
55121;DHT22;41019;48.512;9.036;2023-03-05T11:59:02;8.10;71.20
55121;DHT22;41019;48.512;9.036;2023-03-05T12:01:33;8.10;70.50
55121;DHT22;41019;48.512;9.036;2023-03-05T12:04:01;8.10;70.70
55121;DHT22;41019;48.512;9.036;2023-03-05T12:06:36;8.10;70.40
55121;DHT22;41019;48.512;9.036;2023-03-05T12:09:23;8.10;71.30
55121;DHT22;41019;48.512;9.036;2023-03-05T12:14:50;8.00;69.90
55121;DHT22;41019;48.512;9.036;2023-03-05T12:20:36;7.90;70.00
55121;DHT22;41019;48.512;9.036;2023-03-05T12:23:12;7.80;70.90
55121;DHT22;41019;48.512;9.036;2023-03-05T12:29:01;7.70;72.00
55121;DHT22;41019;48.512;9.036;2023-03-05T12:33:47;7.60;72.10
55121;DHT22;41019;48.512;9.036;2023-03-05T12:38:43;7.60;72.20
55121;DHT22;41019;48.512;9.036;2023-03-05T12:46:44;7.60;72.20
55121;DHT22;41019;48.512;9.036;2023-03-05T12:51:48;7.70;72.00
55121;DHT22;41019;48.512;9.036;2023-03-05T12:57:13;7.80;72.80
55121;DHT22;41019;48.512;9.036;2023-03-05T12:59:50;7.80;71.90
55121;DHT22;41019;48.512;9.036;2023-03-05T13:05:26;7.80;71.70
55121;DHT22;41019;48.512;9.036;2023-03-05T13:07:52;7.80;71.40
55121;DHT22;41019;48.512;9.036;2023-03-05T13:10:23;7.80;70.70
55121;DHT22;41019;48.512;9.036;2023-03-05T13:12:55;7.80;71.70
55121;DHT22;41019;48.512;9.036;2023-03-05T13:15:24;7.80;71.80
55121;DHT22;41019;48.512;9.036;2023-03-05T13:18:01;7.80;70.80
55121;DHT22;41019;48.512;9.036;2023-03-05T13:20:39;7.80;71.30
55121;DHT22;41019;48.512;9.036;2023-03-05T13:23:24;7.80;70.50
55121;DHT22;41019;48.512;9.036;2023-03-05T13:26:08;7.80;70.60
55121;DHT22;41019;48.512;9.036;2023-03-05T13:28:35;7.80;71.10
55121;DHT22;41019;48.512;9.036;2023-03-05T13:31:13;7.60;71.80
55121;DHT22;41019;48.512;9.036;2023-03-05T13:33:40;7.60;72.30
55121;DHT22;41019;48.512;9.036;2023-03-05T13:36:15;7.50;72.80
55121;DHT22;41019;48.512;9.036;2023-03-05T13:38:46;7.50;73.70
55121;DHT22;41019;48.512;9.036;2023-03-05T13:41:25;7.40;74.10
55121;DHT22;41019;48.512;9.036;2023-03-05T13:43:58;7.30;74.40
55121;DHT22;41019;48.512;9.036;2023-03-05T13:46:32;7.20;74.40
55121;DHT22;41019;48.512;9.036;2023-03-05T13:49:18;7.20;74.30
55121;DHT22;41019;48.512;9.036;2023-03-05T13:51:54;7.20;74.10
55121;DHT22;41019;48.512;9.036;2023-03-05T13:54:23;7.10;74.60
55121;DHT22;41019;48.512;9.036;2023-03-05T13:56:59;7.00;74.80
55121;DHT22;41019;48.512;9.036;2023-03-05T13:59:28;7.00;75.10
55121;DHT22;41019;48.512;9.036;2023-03-05T14:02:00;7.00;75.30
55121;DHT22;41019;48.512;9.036;2023-03-05T14:04:33;6.90;75.10
55121;DHT22;41019;48.512;9.036;2023-03-05T14:07:06;6.80;75.00
55121;DHT22;41019;48.512;9.036;2023-03-05T14:12:33;6.70;76.30
55121;DHT22;41019;48.512;9.036;2023-03-05T14:15:01;6.70;76.70
55121;DHT22;41019;48.512;9.036;2023-03-05T14:17:42;6.70;76.40
55121;DHT22;41019;48.512;9.036;2023-03-05T14:20:29;6.70;76.30
55121;DHT22;41019;48.512;9.036;2023-03-05T14:22:59;6.60;76.60
55121;DHT22;41019;48.512;9.036;2023-03-05T14:25:34;6.60;76.50
55121;DHT22;41019;48.512;9.036;2023-03-05T14:28:26;6.60;76.70
55121;DHT22;41019;48.512;9.036;2023-03-05T14:30:55;6.60;76.40
55121;DHT22;41019;48.512;9.036;2023-03-05T14:33:25;6.60;76.80
55121;DHT22;41019;48.512;9.036;2023-03-05T14:35:51;6.70;77.40
55121;DHT22;41019;48.512;9.036;2023-03-05T14:38:23;6.70;77.70
55121;DHT22;41019;48.512;9.036;2023-03-05T14:40:49;6.70;77.70
55121;DHT22;41019;48.512;9.036;2023-03-05T14:43:15;6.80;77.70
55121;DHT22;41019;48.512;9.036;2023-03-05T14:45:42;6.80;77.10
55121;DHT22;41019;48.512;9.036;2023-03-05T14:48:12;6.80;77.10
55121;DHT22;41019;48.512;9.036;2023-03-05T14:50:44;6.80;76.60
55121;DHT22;41019;48.512;9.036;2023-03-05T14:53:18;6.80;76.90
55121;DHT22;41019;48.512;9.036;2023-03-05T14:55:48;6.80;77.00
55121;DHT22;41019;48.512;9.036;2023-03-05T14:58:20;6.80;77.10
55121;DHT22;41019;48.512;9.036;2023-03-05T15:00:48;6.80;76.60
55121;DHT22;41019;48.512;9.036;2023-03-05T15:03:16;6.80;76.70
55121;DHT22;41019;48.512;9.036;2023-03-05T15:05:44;6.80;77.00
55121;DHT22;41019;48.512;9.036;2023-03-05T15:08:17;6.80;77.10
55121;DHT22;41019;48.512;9.036;2023-03-05T15:10:44;6.80;77.10
55121;DHT22;41019;48.512;9.036;2023-03-05T15:13:12;6.80;77.10
55121;DHT22;41019;48.512;9.036;2023-03-05T15:15:40;6.80;77.20
55121;DHT22;41019;48.512;9.036;2023-03-05T15:18:09;6.70;77.50
55121;DHT22;41019;48.512;9.036;2023-03-05T15:20:36;6.70;77.10
55121;DHT22;41019;48.512;9.036;2023-03-05T15:23:04;6.80;77.60
55121;DHT22;41019;48.512;9.036;2023-03-05T15:25:30;6.70;76.90
55121;DHT22;41019;48.512;9.036;2023-03-05T15:27:56;6.70;76.60
55121;DHT22;41019;48.512;9.036;2023-03-05T15:30:29;6.70;76.70
55121;DHT22;41019;48.512;9.036;2023-03-05T15:32:57;6.70;76.60
55121;DHT22;41019;48.512;9.036;2023-03-05T15:35:23;6.70;77.40
55121;DHT22;41019;48.512;9.036;2023-03-05T15:37:50;6.70;77.60
55121;DHT22;41019;48.512;9.036;2023-03-05T15:40:17;6.70;76.90
55121;DHT22;41019;48.512;9.036;2023-03-05T15:42:43;6.70;77.30
55121;DHT22;41019;48.512;9.036;2023-03-05T15:45:09;6.70;76.80
55121;DHT22;41019;48.512;9.036;2023-03-05T15:47:36;6.70;76.40
55121;DHT22;41019;48.512;9.036;2023-03-05T15:50:03;6.80;76.50
55121;DHT22;41019;48.512;9.036;2023-03-05T15:52:29;6.80;77.30
55121;DHT22;41019;48.512;9.036;2023-03-05T15:54:55;6.80;77.20
55121;DHT22;41019;48.512;9.036;2023-03-05T15:57:20;6.80;77.40
55121;DHT22;41019;48.512;9.036;2023-03-05T15:59:47;6.80;78.00
55121;DHT22;41019;48.512;9.036;2023-03-05T16:02:14;6.70;76.80
55121;DHT22;41019;48.512;9.036;2023-03-05T16:04:40;6.70;76.80
55121;DHT22;41019;48.512;9.036;2023-03-05T16:07:08;6.80;76.70
55121;DHT22;41019;48.512;9.036;2023-03-05T16:09:38;6.70;77.40
55121;DHT22;41019;48.512;9.036;2023-03-05T16:12:09;6.70;77.70
55121;DHT22;41019;48.512;9.036;2023-03-05T16:14:38;6.60;77.20
55121;DHT22;41019;48.512;9.036;2023-03-05T16:17:06;6.60;77.20
55121;DHT22;41019;48.512;9.036;2023-03-05T16:19:37;6.50;77.00
55121;DHT22;41019;48.512;9.036;2023-03-05T16:22:05;6.50;77.20
55121;DHT22;41019;48.512;9.036;2023-03-05T16:24:32;6.50;77.30
55121;DHT22;41019;48.512;9.036;2023-03-05T16:26:58;6.50;77.40
55121;DHT22;41019;48.512;9.036;2023-03-05T16:29:24;6.40;77.30
55121;DHT22;41019;48.512;9.036;2023-03-05T16:31:51;6.50;77.40
55121;DHT22;41019;48.512;9.036;2023-03-05T16:34:17;6.40;77.70
55121;DHT22;41019;48.512;9.036;2023-03-05T16:36:51;6.40;77.80
55121;DHT22;41019;48.512;9.036;2023-03-05T16:39:18;6.40;77.10
55121;DHT22;41019;48.512;9.036;2023-03-05T16:41:44;6.40;77.50
55121;DHT22;41019;48.512;9.036;2023-03-05T16:44:11;6.30;78.30
55121;DHT22;41019;48.512;9.036;2023-03-05T16:46:38;6.30;78.10
55121;DHT22;41019;48.512;9.036;2023-03-05T16:49:06;6.30;78.30
55121;DHT22;41019;48.512;9.036;2023-03-05T16:51:34;6.20;78.30
55121;DHT22;41019;48.512;9.036;2023-03-05T16:54:00;6.30;78.50
55121;DHT22;41019;48.512;9.036;2023-03-05T16:56:27;6.20;78.40
55121;DHT22;41019;48.512;9.036;2023-03-05T16:58:54;6.20;78.60
55121;DHT22;41019;48.512;9.036;2023-03-05T17:01:21;6.10;78.50
55121;DHT22;41019;48.512;9.036;2023-03-05T17:03:47;6.10;78.40
55121;DHT22;41019;48.512;9.036;2023-03-05T17:06:22;6.10;78.60
55121;DHT22;41019;48.512;9.036;2023-03-05T17:08:49;6.10;78.80
55121;DHT22;41019;48.512;9.036;2023-03-05T17:11:16;6.10;79.30
55121;DHT22;41019;48.512;9.036;2023-03-05T17:13:42;6.10;80.20
55121;DHT22;41019;48.512;9.036;2023-03-05T17:16:10;6.00;80.70